createdAt,value
2023-04-13T00:00:01.674Z,89.70
2023-04-13T00:02:33.610Z,88.00
2023-04-13T00:05:06.968Z,90.10
2023-04-13T00:07:42.168Z,88.90
2023-04-13T00:10:14.268Z,87.30
2023-04-13T00:12:46.692Z,88.20
2023-04-13T00:15:23.053Z,86.90
2023-04-13T00:17:54.038Z,87.40
2023-04-13T00:20:25.140Z,84.80
2023-04-13T00:23:00.263Z,87.30
2023-04-13T00:25:31.688Z,83.90
2023-04-13T00:28:06.245Z,83.70
2023-04-13T00:30:38.190Z,82.30
2023-04-13T00:33:10.282Z,83.90
2023-04-13T00:35:42.793Z,83.50
2023-04-13T00:38:14.466Z,83.10
2023-04-13T00:40:57.141Z,81.80
2023-04-13T00:43:36.044Z,81.20
2023-04-13T00:46:08.818Z,80.40
2023-04-13T00:48:47.933Z,80.10
2023-04-13T00:51:29.792Z,80.50
2023-04-13T00:54:02.164Z,81.90
2023-04-13T00:56:33.620Z,80.10
2023-04-13T00:59:05.750Z,81.30
2023-04-13T01:01:43.081Z,80.20
2023-04-13T01:04:21.966Z,81.30
2023-04-13T01:07:08.604Z,79.80
2023-04-13T01:09:48.549Z,81.20
2023-04-13T01:12:49.567Z,79.70
2023-04-13T01:15:21.969Z,80.20
2023-04-13T01:18:00.303Z,80.50
2023-04-13T01:20:33.595Z,80.60
2023-04-13T01:23:11.145Z,79.50
2023-04-13T01:25:44.212Z,80.40
2023-04-13T01:28:20.023Z,78.50
2023-04-13T01:30:55.663Z,78.40
2023-04-13T01:33:27.860Z,77.40
2023-04-13T01:36:01.443Z,77.40
2023-04-13T01:38:33.777Z,77.00
2023-04-13T01:41:06.030Z,76.00
2023-04-13T01:43:37.457Z,76.20
2023-04-13T01:46:17.371Z,76.40
2023-04-13T01:48:58.033Z,76.40
2023-04-13T01:51:36.256Z,77.20
2023-04-13T01:54:22.711Z,78.20
2023-04-13T01:56:54.404Z,77.70
2023-04-13T01:59:26.146Z,76.10
2023-04-13T02:01:57.500Z,75.80
2023-04-13T02:04:28.592Z,77.60
2023-04-13T02:07:01.309Z,78.00
2023-04-13T02:09:33.939Z,77.60
2023-04-13T02:12:05.590Z,80.10
2023-04-13T02:14:38.736Z,79.80
2023-04-13T02:17:11.763Z,80.00
2023-04-13T02:19:46.343Z,79.10
2023-04-13T02:22:18.653Z,78.30
2023-04-13T02:24:51.743Z,75.50
2023-04-13T02:27:24.363Z,76.00
2023-04-13T02:29:55.136Z,76.90
2023-04-13T02:32:26.575Z,75.30
2023-04-13T02:34:57.249Z,76.00
2023-04-13T02:37:28.412Z,75.70
2023-04-13T02:40:00.455Z,73.30
2023-04-13T02:42:32.182Z,75.70
2023-04-13T02:45:03.858Z,75.70
2023-04-13T02:47:36.237Z,74.60
2023-04-13T02:50:07.761Z,74.30
2023-04-13T02:52:41.579Z,74.30
2023-04-13T02:55:14.223Z,74.40
2023-04-13T02:57:45.496Z,74.40
2023-04-13T03:00:19.475Z,75.20
2023-04-13T03:02:51.372Z,75.80
2023-04-13T03:05:22.985Z,75.70
2023-04-13T03:07:55.107Z,76.60
2023-04-13T03:10:28.363Z,76.60
2023-04-13T03:12:59.017Z,77.00
2023-04-13T03:15:30.341Z,76.60
2023-04-13T03:18:02.223Z,78.90
2023-04-13T03:20:34.324Z,78.20
2023-04-13T03:23:06.957Z,77.60
2023-04-13T03:25:38.798Z,76.90
2023-04-13T03:28:11.198Z,75.30
2023-04-13T03:30:43.038Z,76.70
2023-04-13T03:33:13.789Z,76.90
2023-04-13T03:35:44.775Z,76.50
2023-04-13T03:38:15.805Z,75.50
2023-04-13T03:40:46.881Z,75.30
2023-04-13T03:43:17.545Z,74.90
2023-04-13T03:45:49.687Z,74.90
2023-04-13T03:48:20.527Z,74.40
2023-04-13T03:50:51.375Z,74.90
2023-04-13T03:53:22.092Z,73.80
2023-04-13T03:55:53.727Z,73.40
2023-04-13T03:58:24.639Z,73.20
2023-04-13T04:00:55.905Z,72.50
2023-04-13T04:03:27.671Z,72.00
2023-04-13T04:06:00.153Z,72.40
2023-04-13T04:08:33.928Z,72.10
2023-04-13T04:11:04.540Z,72.60
2023-04-13T04:13:36.269Z,72.30
2023-04-13T04:16:09.458Z,71.60
2023-04-13T04:18:40.772Z,72.40
2023-04-13T04:21:11.818Z,71.90
2023-04-13T04:23:44.469Z,73.50
2023-04-13T04:26:16.577Z,72.80
2023-04-13T04:28:49.642Z,73.10
2023-04-13T04:31:20.730Z,73.10
2023-04-13T04:33:53.836Z,74.10
2023-04-13T04:36:26.571Z,73.80
2023-04-13T04:39:04.565Z,73.90
2023-04-13T04:41:35.195Z,74.90
2023-04-13T04:44:06.444Z,74.80
2023-04-13T04:46:40.734Z,75.50
2023-04-13T04:49:11.415Z,75.50
2023-04-13T04:51:42.262Z,74.90
2023-04-13T04:54:13.257Z,75.70
2023-04-13T04:56:43.908Z,76.60
2023-04-13T04:59:24.112Z,76.90
2023-04-13T05:03:01.200Z,76.90
2023-04-13T05:05:00.588Z,77.00
2023-04-13T05:07:32.782Z,76.70
2023-04-13T05:10:03.534Z,77.00
2023-04-13T05:12:35.345Z,76.40
2023-04-13T05:15:08.644Z,76.30
2023-04-13T05:17:39.561Z,76.40
2023-04-13T05:20:11.314Z,76.60
2023-04-13T05:22:42.456Z,74.50
2023-04-13T05:25:13.450Z,75.60
2023-04-13T05:27:44.415Z,75.10
2023-04-13T05:30:16.626Z,73.50
2023-04-13T05:32:47.742Z,74.60
2023-04-13T05:35:18.697Z,76.60
2023-04-13T05:37:49.801Z,78.70
2023-04-13T05:40:21.000Z,80.50
2023-04-13T05:42:51.945Z,85.10
2023-04-13T05:45:23.766Z,87.80
2023-04-13T05:47:54.497Z,89.30
2023-04-13T05:50:25.525Z,90.00
2023-04-13T05:52:56.495Z,90.20
2023-04-13T05:55:29.508Z,90.80
2023-04-13T05:58:01.601Z,91.20
2023-04-13T06:00:32.745Z,91.60
2023-04-13T06:03:05.406Z,91.90
2023-04-13T06:05:37.535Z,92.30
2023-04-13T06:08:09.730Z,92.60
2023-04-13T06:10:39.995Z,92.90
2023-04-13T06:13:10.887Z,93.20
2023-04-13T06:15:42.753Z,93.50
2023-04-13T06:18:13.889Z,93.90
2023-04-13T06:20:44.785Z,94.20
2023-04-13T06:23:16.037Z,94.40
2023-04-13T06:25:48.015Z,94.50
2023-04-13T06:28:18.870Z,94.60
2023-04-13T06:30:49.837Z,94.70
2023-04-13T06:33:20.590Z,94.40
2023-04-13T06:35:52.112Z,94.10
2023-04-13T06:38:24.326Z,93.60
2023-04-13T06:40:54.948Z,94.30
2023-04-13T06:43:29.609Z,93.60
2023-04-13T06:46:04.318Z,93.50
2023-04-13T06:48:36.203Z,93.20
2023-04-13T06:51:08.139Z,92.50
2023-04-13T06:53:39.979Z,92.40
2023-04-13T06:56:10.905Z,91.80
2023-04-13T06:58:41.852Z,91.40
2023-04-13T07:01:14.013Z,90.80
2023-04-13T07:03:45.897Z,91.10
2023-04-13T07:06:17.519Z,90.50
2023-04-13T07:08:48.681Z,90.90
2023-04-13T07:11:19.268Z,90.70
2023-04-13T07:13:50.063Z,90.40
2023-04-13T07:16:21.822Z,90.40
2023-04-13T07:18:52.745Z,90.40
2023-04-13T07:21:23.783Z,89.90
2023-04-13T07:23:54.440Z,89.50
2023-04-13T07:26:25.120Z,88.80
2023-04-13T07:28:55.866Z,89.30
2023-04-13T07:31:28.776Z,89.50
2023-04-13T07:33:59.496Z,88.50
2023-04-13T07:36:31.667Z,87.70
2023-04-13T07:39:03.701Z,88.60
2023-04-13T07:41:34.775Z,88.80
2023-04-13T07:44:07.424Z,88.70
2023-04-13T07:46:38.308Z,88.00
2023-04-13T07:49:09.122Z,89.20
2023-04-13T07:51:41.802Z,88.50
2023-04-13T07:54:15.195Z,88.30
2023-04-13T07:56:47.551Z,88.00
2023-04-13T07:59:20.117Z,89.00
2023-04-13T08:01:51.198Z,88.90
2023-04-13T08:04:22.121Z,89.60
2023-04-13T08:06:53.466Z,89.80
2023-04-13T08:09:24.316Z,89.80
2023-04-13T08:11:55.158Z,89.50
2023-04-13T08:14:25.752Z,89.40
2023-04-13T08:16:56.513Z,89.80
2023-04-13T08:19:28.153Z,90.00
2023-04-13T08:21:58.765Z,90.30
2023-04-13T08:24:29.860Z,90.00
2023-04-13T08:27:00.518Z,89.40
2023-04-13T08:29:31.294Z,88.80
2023-04-13T08:32:02.033Z,89.10
2023-04-13T08:34:35.004Z,89.70
2023-04-13T08:37:05.944Z,90.00
2023-04-13T08:39:36.576Z,90.00
2023-04-13T08:42:08.026Z,90.00
2023-04-13T08:44:45.099Z,90.20
2023-04-13T08:47:16.109Z,90.20
2023-04-13T08:49:50.428Z,90.10
2023-04-13T08:52:22.368Z,89.80
2023-04-13T08:54:54.545Z,90.10
2023-04-13T08:57:27.548Z,90.10
2023-04-13T09:00:00.669Z,90.00
2023-04-13T09:02:49.338Z,89.40
2023-04-13T09:05:34.812Z,90.10
2023-04-13T09:08:26.857Z,90.70
2023-04-13T09:11:00.452Z,91.00
2023-04-13T09:13:34.457Z,91.10
2023-04-13T09:16:06.193Z,91.50
2023-04-13T09:18:38.378Z,91.30
2023-04-13T09:21:09.285Z,91.30
2023-04-13T09:23:40.703Z,91.50
2023-04-13T09:26:14.021Z,91.20
2023-04-13T09:28:52.433Z,91.20
2023-04-13T09:31:24.505Z,90.80
2023-04-13T09:33:56.444Z,90.90
2023-04-13T09:36:29.447Z,90.60
2023-04-13T09:39:00.823Z,90.50
2023-04-13T09:41:37.332Z,90.40
2023-04-13T09:44:23.500Z,90.60
2023-04-13T09:47:05.672Z,90.20
2023-04-13T09:49:46.167Z,90.10
2023-04-13T09:52:24.812Z,90.20
2023-04-13T09:55:00.940Z,90.30
2023-04-13T09:57:33.687Z,90.40
2023-04-13T10:00:09.202Z,90.50
2023-04-13T10:02:44.290Z,90.50
2023-04-13T10:05:16.020Z,90.80
2023-04-13T10:07:51.552Z,90.90
2023-04-13T10:10:24.292Z,91.00
2023-04-13T10:12:59.122Z,91.00
2023-04-13T10:15:44.984Z,91.20
2023-04-13T10:18:40.527Z,91.40
2023-04-13T10:21:13.056Z,91.50
2023-04-13T10:23:44.705Z,91.90
2023-04-13T10:26:15.697Z,91.60
2023-04-13T10:28:49.014Z,91.80
2023-04-13T10:31:21.692Z,92.00
2023-04-13T10:33:57.827Z,91.90
2023-04-13T10:36:49.035Z,92.10
2023-04-13T10:39:31.331Z,91.70
2023-04-13T10:42:12.903Z,91.60
2023-04-13T10:44:54.586Z,91.50
2023-04-13T10:47:28.017Z,91.60
2023-04-13T10:49:59.157Z,91.70
2023-04-13T10:52:30.502Z,91.70
2023-04-13T10:55:01.363Z,91.70
2023-04-13T10:57:37.273Z,91.80
2023-04-13T11:00:27.415Z,92.10
2023-04-13T11:03:12.680Z,91.90
2023-04-13T11:05:44.542Z,91.60
2023-04-13T11:08:30.991Z,91.70
2023-04-13T11:11:01.696Z,91.50
2023-04-13T11:13:33.559Z,91.50
2023-04-13T11:16:09.228Z,91.50
2023-04-13T11:18:40.928Z,91.60
2023-04-13T11:21:20.989Z,91.50
2023-04-13T11:23:57.510Z,91.70
2023-04-13T11:26:42.312Z,92.00
2023-04-13T11:29:25.254Z,91.90
2023-04-13T11:41:14.979Z,92.10
2023-04-13T11:47:18.127Z,92.30
2023-04-13T11:50:06.088Z,92.50
2023-04-13T11:52:39.393Z,92.50
2023-04-13T11:55:22.294Z,92.40
2023-04-13T11:57:56.351Z,92.30
2023-04-13T12:00:28.685Z,92.40
2023-04-13T12:03:02.367Z,92.50
2023-04-13T12:05:36.047Z,92.50
2023-04-13T12:08:07.408Z,92.70
2023-04-13T12:10:43.620Z,92.60
2023-04-13T12:13:35.286Z,92.80
2023-04-13T12:16:15.902Z,92.50
2023-04-13T12:18:57.356Z,92.40
2023-04-13T12:21:29.214Z,92.60
2023-04-13T12:24:03.070Z,92.70
2023-04-13T12:27:17.120Z,92.60
2023-04-13T12:29:34.978Z,92.60
2023-04-13T12:32:08.504Z,92.60
2023-04-13T12:34:38.746Z,92.70
2023-04-13T12:37:09.953Z,92.80
2023-04-13T12:39:40.197Z,92.40
2023-04-13T12:42:10.500Z,92.70
2023-04-13T12:44:40.777Z,93.00
2023-04-13T12:47:11.133Z,93.20
2023-04-13T12:49:41.553Z,92.80
2023-04-13T12:52:11.856Z,92.90
2023-04-13T12:54:42.157Z,93.40
2023-04-13T12:57:12.418Z,93.40
2023-04-13T12:59:42.747Z,93.30
2023-04-13T13:02:14.010Z,93.30
2023-04-13T13:04:45.390Z,93.30
2023-04-13T13:07:15.927Z,93.00
2023-04-13T13:09:46.224Z,93.30
2023-04-13T13:12:16.957Z,93.30
2023-04-13T13:14:47.415Z,93.70
2023-04-13T13:17:18.001Z,93.40
2023-04-13T13:19:48.462Z,93.70
2023-04-13T13:22:18.879Z,94.00
2023-04-13T13:24:49.551Z,93.60
2023-04-13T13:28:00.881Z,93.50
2023-04-13T13:30:12.146Z,93.50
2023-04-13T13:32:43.151Z,93.50
2023-04-13T13:35:13.385Z,93.50
2023-04-13T13:37:45.055Z,93.80
2023-04-13T13:40:16.011Z,93.70
2023-04-13T13:42:51.318Z,93.40
2023-04-13T13:45:25.980Z,93.80
2023-04-13T13:47:56.796Z,93.40
2023-04-13T13:50:27.780Z,93.10
2023-04-13T13:53:03.204Z,93.30
2023-04-13T13:55:35.682Z,93.70
2023-04-13T13:58:06.153Z,93.50
2023-04-13T14:00:37.371Z,93.50
2023-04-13T14:03:08.107Z,93.70
2023-04-13T14:05:40.225Z,93.80
2023-04-13T14:08:10.584Z,93.80
2023-04-13T14:10:41.619Z,93.80
2023-04-13T14:13:13.375Z,93.90
2023-04-13T14:15:43.738Z,94.40
2023-04-13T14:18:14.556Z,93.90
2023-04-13T14:20:46.734Z,94.20
2023-04-13T14:23:18.192Z,93.80
2023-04-13T14:25:48.568Z,93.80
2023-04-13T14:28:20.739Z,93.90
2023-04-13T14:30:51.730Z,93.80
2023-04-13T14:33:24.812Z,93.80
2023-04-13T14:35:55.474Z,93.70
2023-04-13T14:38:29.808Z,93.70
2023-04-13T14:41:00.971Z,93.90
2023-04-13T14:43:31.279Z,93.90
2023-04-13T14:46:01.751Z,94.00
2023-04-13T14:48:33.712Z,94.20
2023-04-13T14:51:04.054Z,94.20
2023-04-13T14:53:35.093Z,94.50
2023-04-13T14:56:06.298Z,94.30
2023-04-13T14:58:37.882Z,94.30
2023-04-13T15:01:22.798Z,94.20
2023-04-13T15:03:55.317Z,94.40
2023-04-13T15:06:28.254Z,94.30
2023-04-13T15:08:58.875Z,94.10
2023-04-13T15:11:31.225Z,94.50
2023-04-13T15:14:01.537Z,94.70
2023-04-13T15:16:32.352Z,95.20
2023-04-13T15:19:03.348Z,95.40
2023-04-13T15:21:34.273Z,95.10
2023-04-13T15:24:04.485Z,95.10
2023-04-13T15:26:40.463Z,95.20
2023-04-13T15:29:11.416Z,95.00
2023-04-13T15:31:42.659Z,95.10
2023-04-13T15:34:13.468Z,95.40
2023-04-13T15:36:43.756Z,95.30
2023-04-13T15:39:14.061Z,95.00
2023-04-13T15:41:44.467Z,94.80
2023-04-13T15:44:14.717Z,94.20
2023-04-13T15:46:46.262Z,94.10
2023-04-13T15:49:17.143Z,93.70
2023-04-13T15:51:47.624Z,93.40
2023-04-13T15:54:18.298Z,92.90
2023-04-13T15:56:49.545Z,92.60
2023-04-13T15:59:19.926Z,92.90
2023-04-13T16:01:52.126Z,92.90
2023-04-13T16:04:22.665Z,92.50
2023-04-13T16:07:09.347Z,92.40
2023-04-13T16:09:45.611Z,92.90
2023-04-13T16:12:16.821Z,93.10
2023-04-13T16:14:47.305Z,92.90
2023-04-13T16:17:18.024Z,93.00
2023-04-13T16:19:48.455Z,93.20
2023-04-13T16:22:19.656Z,93.20
2023-04-13T16:24:50.154Z,93.60
2023-04-13T16:27:23.190Z,93.60
2023-04-13T16:29:53.829Z,92.90
2023-04-13T16:32:24.232Z,92.70
2023-04-13T16:34:55.041Z,92.50
2023-04-13T16:37:26.407Z,93.00
2023-04-13T16:39:56.736Z,93.10
2023-04-13T16:42:27.400Z,93.00
2023-04-13T16:44:58.440Z,92.70
2023-04-13T16:47:29.217Z,93.20
2023-04-13T16:49:59.510Z,93.30
2023-04-13T16:52:30.113Z,93.30
2023-04-13T16:55:00.786Z,93.30
2023-04-13T16:57:31.912Z,93.20
2023-04-13T17:00:12.418Z,93.00
2023-04-13T17:02:45.337Z,93.20
2023-04-13T17:05:15.914Z,93.00
2023-04-13T17:07:49.437Z,92.90
2023-04-13T17:10:20.270Z,93.00
2023-04-13T17:12:50.849Z,93.40
2023-04-13T17:15:24.503Z,93.50
2023-04-13T17:17:55.109Z,92.90
2023-04-13T17:20:25.722Z,93.30
2023-04-13T17:22:56.265Z,93.30
2023-04-13T17:25:26.919Z,93.70
2023-04-13T17:27:57.378Z,93.90
2023-04-13T17:30:27.744Z,94.50
2023-04-13T17:32:58.342Z,94.30
2023-04-13T17:35:28.895Z,94.60
2023-04-13T17:37:59.588Z,94.30
2023-04-13T17:40:30.348Z,94.00
2023-04-13T17:43:01.886Z,94.00
2023-04-13T17:45:33.274Z,94.10
2023-04-13T17:48:05.502Z,93.80
2023-04-13T17:50:36.574Z,93.60
2023-04-13T17:53:07.473Z,93.90
2023-04-13T17:55:41.537Z,93.80
2023-04-13T17:58:14.030Z,93.40
2023-04-13T18:00:44.784Z,93.50
2023-04-13T18:03:15.762Z,93.90
2023-04-13T18:05:47.084Z,94.10
2023-04-13T18:08:20.982Z,94.40
2023-04-13T18:10:51.592Z,94.60
2023-04-13T18:13:23.092Z,94.90
2023-04-13T18:15:54.749Z,95.00
2023-04-13T18:18:28.536Z,95.10
2023-04-13T18:20:59.209Z,95.10
2023-04-13T18:23:30.073Z,95.20
2023-04-13T18:26:00.826Z,95.90
2023-04-13T18:28:31.821Z,95.60
2023-04-13T18:31:03.543Z,95.40
2023-04-13T18:33:34.546Z,95.20
2023-04-13T18:36:05.349Z,94.60
2023-04-13T18:38:39.952Z,94.80
2023-04-13T18:41:10.266Z,95.30
2023-04-13T18:43:41.279Z,95.20
2023-04-13T18:46:12.093Z,95.10
2023-04-13T18:48:43.103Z,94.90
2023-04-13T18:51:14.443Z,94.80
2023-04-13T18:53:44.989Z,94.60
2023-04-13T18:56:15.762Z,94.50
2023-04-13T18:58:47.049Z,94.80
2023-04-13T19:01:24.265Z,94.40
2023-04-13T19:03:56.699Z,94.40
2023-04-13T19:06:29.452Z,94.20
2023-04-13T19:09:00.089Z,94.60
2023-04-13T19:11:30.740Z,94.50
2023-04-13T19:14:01.894Z,94.70
2023-04-13T19:16:36.894Z,94.70
2023-04-13T19:19:07.386Z,95.00
2023-04-13T19:21:39.267Z,95.20
2023-04-13T19:24:09.950Z,95.10
2023-04-13T19:26:40.362Z,94.80
2023-04-13T19:29:17.182Z,95.10
2023-04-13T19:31:48.994Z,94.90
2023-04-13T19:34:19.325Z,95.10
2023-04-13T19:36:49.993Z,94.80
2023-04-13T19:39:20.514Z,94.80
2023-04-13T19:41:50.917Z,95.10
2023-04-13T19:44:21.407Z,94.70
2023-04-13T19:46:51.656Z,94.80
2023-04-13T19:49:21.975Z,94.50
2023-04-13T19:51:52.905Z,93.90
2023-04-13T19:54:23.574Z,93.70
2023-04-13T19:56:54.569Z,93.70
2023-04-13T19:59:25.230Z,94.00
2023-04-13T20:01:55.855Z,93.90
2023-04-13T20:04:27.031Z,94.00
2023-04-13T20:06:58.401Z,94.10
2023-04-13T20:09:29.027Z,94.00
2023-04-13T20:12:00.657Z,94.30
2023-04-13T20:14:30.937Z,94.40
2023-04-13T20:17:02.018Z,94.50
2023-04-13T20:19:32.421Z,94.70
2023-04-13T20:22:03.902Z,95.40
2023-04-13T20:24:34.836Z,95.00
2023-04-13T20:27:05.470Z,94.70
2023-04-13T20:29:35.736Z,94.20
2023-04-13T20:32:08.319Z,94.60
2023-04-13T20:34:40.031Z,94.10
2023-04-13T20:37:16.183Z,94.20
2023-04-13T20:39:55.232Z,93.90
2023-04-13T20:42:27.006Z,94.10
2023-04-13T20:45:00.452Z,93.80
2023-04-13T20:47:33.491Z,94.40
2023-04-13T20:50:04.493Z,94.40
2023-04-13T20:52:36.446Z,94.50
2023-04-13T20:55:06.950Z,94.90
2023-04-13T20:57:40.288Z,94.90
2023-04-13T21:00:15.861Z,94.60
2023-04-13T21:02:48.456Z,94.80
2023-04-13T21:05:18.837Z,94.60
2023-04-13T21:07:49.177Z,94.70
2023-04-13T21:10:19.518Z,95.00
2023-04-13T21:12:50.108Z,94.80
2023-04-13T21:15:20.643Z,95.10
2023-04-13T21:17:50.917Z,95.20
2023-04-13T21:20:21.796Z,95.50
2023-04-13T21:22:53.016Z,95.40
2023-04-13T21:25:29.197Z,95.70
2023-04-13T21:28:00.379Z,95.80
2023-04-13T21:30:32.831Z,96.20
2023-04-13T21:33:03.622Z,96.00
2023-04-13T21:35:34.923Z,95.70
2023-04-13T21:38:07.380Z,95.90
2023-04-13T21:40:38.602Z,95.00
2023-04-13T21:43:09.326Z,94.80
2023-04-13T21:45:40.294Z,94.40
2023-04-13T21:48:10.900Z,94.50
2023-04-13T21:50:42.466Z,94.20
2023-04-13T21:53:14.406Z,93.90
2023-04-13T21:55:46.108Z,93.80
2023-04-13T21:58:17.177Z,94.10
2023-04-13T22:00:50.082Z,93.20
2023-04-13T22:03:21.022Z,92.90
2023-04-13T22:05:52.879Z,93.20
2023-04-13T22:08:32.817Z,92.80
2023-04-13T22:11:03.912Z,92.60
2023-04-13T22:13:34.936Z,92.00
2023-04-13T22:16:05.884Z,92.30
2023-04-13T22:18:37.304Z,92.10
2023-04-13T22:21:09.060Z,92.00
2023-04-13T22:23:39.895Z,91.50
2023-04-13T22:26:10.690Z,91.50
2023-04-13T22:28:41.611Z,91.50
2023-04-13T22:31:17.591Z,91.70
2023-04-13T22:33:49.079Z,91.20
2023-04-13T22:36:23.725Z,91.10
2023-04-13T22:38:55.885Z,91.30
2023-04-13T22:41:27.789Z,91.40
2023-04-13T22:43:58.718Z,90.90
2023-04-13T22:46:29.416Z,91.20
2023-04-13T22:49:00.529Z,91.00
2023-04-13T22:51:42.334Z,90.60
2023-04-13T22:54:13.804Z,90.30
2023-04-13T22:56:44.663Z,90.50
2023-04-13T22:59:16.199Z,90.30
2023-04-13T23:01:47.556Z,90.30
2023-04-13T23:04:22.561Z,89.80
2023-04-13T23:06:54.131Z,89.80
2023-04-13T23:09:25.746Z,89.30
2023-04-13T23:11:56.652Z,90.00
2023-04-13T23:14:28.226Z,88.40
2023-04-13T23:16:58.986Z,89.30
2023-04-13T23:19:33.484Z,88.90
2023-04-13T23:22:04.494Z,88.00
2023-04-13T23:24:38.185Z,88.60
2023-04-13T23:27:13.254Z,88.00
2023-04-13T23:32:38.444Z,86.50
2023-04-13T23:35:16.758Z,86.60
2023-04-13T23:37:53.557Z,86.40
2023-04-13T23:40:30.858Z,86.40
2023-04-13T23:43:01.842Z,85.00
2023-04-13T23:45:32.177Z,85.50
2023-04-13T23:48:02.635Z,84.60
2023-04-13T23:50:33.068Z,85.00
2023-04-13T23:53:03.578Z,84.30
2023-04-13T23:55:34.353Z,83.00
2023-04-13T23:58:04.685Z,82.50
